Time;durP1;ratioP1;P1;durP2;ratioP2;P2;SDS_P1;SDS_P2;PMS_P1;PMS_P2;Temp;Humidity;BMP_temperature;BMP_pressure;BME280_temperature;BME280_humidity;BME280_pressure;Samples;Min_cycle;Max_cycle;Signal;HPM_P1;HPM_P2
2023/07/09 04:03:14;;;;;;;0.70;0.20;;;23.50;1.00;;;;;;4964302;29;20503;-75
2023/07/09 04:05:42;;;;;;;0.70;0.20;;;23.40;1.00;;;;;;4965158;29;20496;-75
2023/07/09 04:08:10;;;;;;;0.70;0.20;;;23.40;1.00;;;;;;4956898;29;20488;-76
2023/07/09 04:10:38;;;;;;;1.00;0.20;;;;;;;;;;4963069;28;20488;-76
2023/07/09 04:13:06;;;;;;;0.70;0.10;;;23.40;1.00;;;;;;4994544;28;20441;-76
2023/07/09 04:15:34;;;;;;;1.20;0.97;;;;;;;;;;4995886;28;20570;-76
2023/07/09 04:18:03;;;;;;;0.70;0.20;;;;;;;;;;4995422;28;20459;-76
2023/07/09 04:20:34;;;;;;;0.90;0.17;;;;;;;;;;4995375;28;20474;-76
2023/07/09 04:23:03;;;;;;;0.70;0.20;;;;;;;;;;4994253;28;20500;-76
2023/07/09 04:25:31;;;;;;;0.70;0.20;;;;;;;;;;4994623;28;20582;-76
2023/07/09 04:27:59;;;;;;;0.70;0.10;;;;;;;;;;4994083;28;20487;-76
2023/07/09 04:30:27;;;;;;;0.70;0.20;;;;;;;;;;4993847;28;20452;-76
2023/07/09 04:32:56;;;;;;;0.70;0.20;;;;;;;;;;4993267;28;20455;-76
2023/07/09 04:35:24;;;;;;;0.70;0.10;;;;;;;;;;4993667;28;20548;-77
2023/07/09 04:37:53;;;;;;;0.70;0.13;;;23.90;1.00;;;;;;4993661;28;20555;-76
2023/07/09 04:40:22;;;;;;;0.70;0.20;;;;;;;;;;4993686;28;20548;-76
2023/07/09 04:42:50;;;;;;;0.70;0.13;;;;;;;;;;4992931;28;20556;-76
2023/07/09 04:45:19;;;;;;;0.70;0.20;;;23.90;1.00;;;;;;4993508;28;20487;-77
2023/07/09 04:47:46;;;;;;;0.70;0.20;;;23.80;1.00;;;;;;4994286;28;20538;-76
2023/07/09 04:50:15;;;;;;;0.70;0.20;;;;;;;;;;4994772;28;20463;-76
2023/07/09 04:52:43;;;;;;;0.70;0.10;;;;;;;;;;4993644;28;20507;-76
2023/07/09 04:55:12;;;;;;;0.70;0.10;;;;;;;;;;4993685;28;20526;-76
2023/07/09 04:57:41;;;;;;;1.03;0.63;;;;;;;;;;4993734;28;20528;-76
2023/07/09 05:00:10;;;;;;;0.70;0.13;;;23.70;1.00;;;;;;4994320;28;20550;-77
2023/07/09 05:02:39;;;;;;;2.00;1.30;;;;;;;;;;4979539;28;20490;-77
2023/07/09 05:05:08;;;;;;;0.70;0.10;;;;;;;;;;4977731;28;20481;-76
2023/07/09 05:07:36;;;;;;;0.70;0.20;;;;;;;;;;4978382;28;20539;-76
2023/07/09 05:10:05;;;;;;;0.70;0.10;;;;;;;;;;4977609;28;20445;-76
2023/07/09 05:12:34;;;;;;;0.70;0.20;;;23.70;1.00;;;;;;4958058;29;20466;-78
2023/07/09 05:15:02;;;;;;;0.70;0.10;;;;;;;;;;4958513;29;20488;-76
2023/07/09 05:17:30;;;;;;;0.70;0.20;;;;;;;;;;4958021;29;20453;-76
2023/07/09 05:19:59;;;;;;;0.70;0.10;;;;;;;;;;4958556;29;20490;-77
2023/07/09 05:22:27;;;;;;;0.70;0.10;;;;;;;;;;4958416;29;20537;-76
2023/07/09 05:24:55;;;;;;;0.70;0.20;;;;;;;;;;4959571;29;20540;-76
2023/07/09 05:27:23;;;;;;;0.70;0.20;;;;;;;;;;4960461;29;20464;-77
2023/07/09 05:29:52;;;;;;;0.70;0.20;;;24.00;1.00;;;;;;4960199;29;20478;-76
2023/07/09 05:32:20;;;;;;;0.70;0.20;;;;;;;;;;4957375;29;20564;-76
2023/07/09 05:34:49;;;;;;;0.70;0.10;;;;;;;;;;4957940;29;20454;-75
2023/07/09 05:37:17;;;;;;;0.70;0.10;;;;;;;;;;4957949;29;20488;-75
2023/07/09 05:39:45;;;;;;;0.70;0.20;;;;;;;;;;4958156;29;20463;-75
2023/07/09 05:42:13;;;;;;;0.70;0.20;;;;;;;;;;4957967;29;20474;-76
2023/07/09 05:44:41;;;;;;;0.70;0.10;;;;;;;;;;4958411;29;20549;-75
2023/07/09 05:47:11;;;;;;;1.13;0.60;;;;;;;;;;4958286;29;20484;-76
2023/07/09 05:49:39;;;;;;;0.70;0.20;;;;;;;;;;4958649;29;20828;-75
2023/07/09 05:52:08;;;;;;;0.70;0.20;;;;;;;;;;4958318;29;20473;-76
2023/07/09 05:54:36;;;;;;;0.70;0.20;;;;;;;;;;4958632;29;20454;-77
2023/07/09 05:57:04;;;;;;;0.70;0.20;;;;;;;;;;4958508;29;20479;-78
2023/07/09 05:59:32;;;;;;;0.70;0.20;;;;;;;;;;4958901;29;20540;-77
2023/07/09 06:02:02;;;;;;;0.70;0.13;;;;;;;;;;4969221;28;20491;-76
2023/07/09 06:04:31;;;;;;;1.47;1.37;;;24.30;1.00;;;;;;4975967;28;20507;-76
2023/07/09 06:07:00;;;;;;;2.90;2.73;;;24.40;1.00;;;;;;4975878;28;20907;-75
2023/07/09 06:09:27;;;;;;;0.70;0.10;;;24.50;1.00;;;;;;4975904;28;20463;-76
2023/07/09 06:11:55;;;;;;;1.37;1.23;;;24.50;1.00;;;;;;4990898;28;20468;-75
2023/07/09 06:14:24;;;;;;;0.70;0.20;;;;;;;;;;4985594;28;20492;-75
2023/07/09 06:16:52;;;;;;;3.43;3.30;;;;;;;;;;4976052;28;20933;-76
2023/07/09 06:19:20;;;;;;;0.70;0.10;;;24.70;1.00;;;;;;4976153;28;20485;-76
2023/07/09 06:21:49;;;;;;;0.70;0.10;;;24.70;1.00;;;;;;4975985;28;20469;-75
2023/07/09 06:24:17;;;;;;;0.70;0.10;;;24.80;1.00;;;;;;4975639;28;20484;-76
2023/07/09 06:26:45;;;;;;;0.70;0.10;;;;;;;;;;4976273;28;20999;-76
2023/07/09 06:29:13;;;;;;;0.70;0.20;;;;;;;;;;4975538;28;20460;-75
2023/07/09 06:31:42;;;;;;;0.70;0.20;;;24.90;1.00;;;;;;4975623;28;20465;-75
2023/07/09 06:34:10;;;;;;;0.70;0.20;;;29.30;1.00;;;;;;4975151;28;20449;-76
2023/07/09 06:36:38;;;;;;;0.70;0.20;;;25.00;1.00;;;;;;4975642;28;20791;-75
2023/07/09 06:39:07;;;;;;;0.70;0.20;;;25.00;1.00;;;;;;4975792;28;20449;-76
2023/07/09 06:41:38;;;;;;;0.80;0.47;;;;;;;;;;4975600;28;20461;-76
2023/07/09 06:44:06;;;;;;;0.70;0.10;;;25.10;1.00;;;;;;4975565;28;20536;-76
2023/07/09 06:46:35;;;;;;;0.70;0.20;;;25.20;1.00;;;;;;4975540;28;20565;-76
2023/07/09 06:49:05;;;;;;;0.70;0.10;;;25.20;1.00;;;;;;4975719;28;20475;-75
2023/07/09 06:51:33;;;;;;;0.70;0.10;;;;;;;;;;4975505;28;20493;-76
2023/07/09 06:54:01;;;;;;;0.70;0.10;;;25.30;1.00;;;;;;4975500;28;20477;-76
2023/07/09 06:56:31;;;;;;;0.70;0.20;;;25.40;1.00;;;;;;4975469;28;20448;-77
2023/07/09 06:58:58;;;;;;;0.70;0.20;;;25.50;1.00;;;;;;4975554;28;20464;-75
2023/07/09 07:01:27;;;;;;;0.70;0.20;;;;;;;;;;4967515;28;20997;-75
2023/07/09 07:03:54;;;;;;;0.70;0.10;;;25.60;1.00;;;;;;4955945;29;20446;-75
2023/07/09 07:06:22;;;;;;;0.70;0.10;;;25.70;1.00;;;;;;4955551;29;20482;-75
2023/07/09 07:08:51;;;;;;;0.70;0.20;;;25.70;1.00;;;;;;4955839;29;20446;-76
2023/07/09 07:11:19;;;;;;;0.70;0.20;;;;;;;;;;4966218;28;20500;-75
2023/07/09 07:13:51;;;;;;;0.70;0.37;;;25.80;1.00;;;;;;4974870;28;20446;-76
2023/07/09 07:16:19;;;;;;;0.70;0.10;;;25.90;1.00;;;;;;4975081;28;20512;-76
2023/07/09 07:18:47;;;;;;;0.70;0.10;;;26.00;1.00;;;;;;4975286;28;20524;-76
2023/07/09 07:21:15;;;;;;;0.70;0.10;;;26.00;1.00;;;;;;4974859;28;20541;-74
2023/07/09 07:23:43;;;;;;;0.70;0.10;;;;;;;;;;4973543;28;20971;-76
2023/07/09 07:26:11;;;;;;;0.70;0.10;;;;;;;;;;4974844;28;20539;-75
2023/07/09 07:28:39;;;;;;;0.70;0.10;;;26.20;1.00;;;;;;4974788;28;20816;-76
2023/07/09 07:31:09;;;;;;;0.70;0.37;;;26.30;1.00;;;;;;4974787;28;21072;-75
2023/07/09 07:33:40;;;;;;;0.70;0.20;;;26.20;1.00;;;;;;4974260;28;20944;-75
2023/07/09 07:36:08;;;;;;;0.70;0.10;;;26.40;1.00;;;;;;4974911;28;20450;-75
2023/07/09 07:38:39;;;;;;;0.70;0.10;;;;;;;;;;4974882;28;20533;-75
2023/07/09 07:41:08;;;;;;;0.70;0.30;;;26.40;1.00;;;;;;4974206;28;20557;-75
2023/07/09 07:43:36;;;;;;;0.70;0.20;;;26.50;1.00;;;;;;4974710;28;20890;-75
2023/07/09 07:46:04;;;;;;;0.70;0.10;;;;;;;;;;4974761;28;20441;-75
2023/07/09 07:48:34;;;;;;;0.70;0.10;;;26.70;1.00;;;;;;4974912;28;20457;-76
2023/07/09 07:51:03;;;;;;;0.70;0.30;;;26.80;1.00;;;;;;4974772;28;20549;-76
2023/07/09 07:53:31;;;;;;;2.03;1.37;;;26.90;1.00;;;;;;4974372;28;20481;-75
2023/07/09 07:56:01;;;;;;;1.23;0.93;;;26.90;1.00;;;;;;4974700;28;20442;-76
2023/07/09 07:58:30;;;;;;;0.70;0.10;;;26.90;1.00;;;;;;4974618;28;20445;-76
2023/07/09 08:00:58;;;;;;;0.70;0.20;;;;;;;;;;4971133;28;21000;-76
2023/07/09 08:03:27;;;;;;;0.70;0.17;;;27.10;1.00;;;;;;4972588;28;20509;-76
2023/07/09 08:05:56;;;;;;;0.70;0.20;;;27.20;1.00;;;;;;4957827;28;20466;-74
2023/07/09 08:08:29;;;;;;;0.70;0.20;;;;;;;;;;4968280;28;20482;-74
2023/07/09 08:11:04;;;;;;;0.70;0.10;;;27.40;1.00;;;;;;4957556;28;20531;-74
2023/07/09 08:13:33;;;;;;;0.70;0.20;;;;;;;;;;4970507;28;20574;-75
2023/07/09 08:16:01;;;;;;;0.70;0.20;;;27.50;1.00;;;;;;4957926;28;20450;-75
2023/07/09 08:18:30;;;;;;;0.70;0.20;;;;;;;;;;4967616;28;20434;-75
2023/07/09 08:21:01;;;;;;;0.70;0.17;;;27.60;1.00;;;;;;4953539;29;21018;-75
2023/07/09 08:23:28;;;;;;;0.70;0.10;;;27.70;1.00;;;;;;4952807;29;20443;-76
2023/07/09 08:25:58;;;;;;;0.70;0.20;;;27.80;1.00;;;;;;4954120;29;20442;-75
2023/07/09 08:28:26;;;;;;;0.70;0.10;;;27.80;1.00;;;;;;4953826;29;20487;-76
2023/07/09 08:30:55;;;;;;;0.70;0.10;;;27.90;1.00;;;;;;4953227;29;20470;-76
2023/07/09 08:33:24;;;;;;;0.70;0.10;;;28.00;1.00;;;;;;4954127;29;20986;-75
2023/07/09 08:35:53;;;;;;;1.00;0.40;;;28.00;1.00;;;;;;4958883;28;20493;-77
2023/07/09 08:38:23;;;;;;;0.70;0.10;;;28.00;1.00;;;;;;4963018;29;20959;-75
2023/07/09 08:40:58;;;;;;;0.70;0.10;;;28.00;1.00;;;;;;4959590;29;20478;-75
2023/07/09 08:43:35;;;;;;;0.70;0.30;;;28.10;1.00;;;;;;4958144;29;20790;-75
2023/07/09 08:46:09;;;;;;;0.80;0.33;;;28.20;1.00;;;;;;4958214;29;20485;-75
2023/07/09 08:48:42;;;;;;;0.70;0.10;;;28.20;1.00;;;;;;4958956;29;20486;-75
2023/07/09 08:51:16;;;;;;;0.80;0.43;;;28.20;1.00;;;;;;4958309;29;20553;-76
2023/07/09 08:53:50;;;;;;;0.70;0.20;;;28.10;1.00;;;;;;4958276;29;20446;-75
2023/07/09 08:56:19;;;;;;;0.70;0.10;;;28.20;1.00;;;;;;4958441;29;20445;-76
2023/07/09 08:58:49;;;;;;;0.70;0.10;;;28.30;1.00;;;;;;4958339;29;20525;-75
2023/07/09 09:01:21;;;;;;;0.70;0.20;;;28.40;1.00;;;;;;4964110;28;20507;-76
2023/07/09 09:03:51;;;;;;;0.87;0.63;;;28.50;1.00;;;;;;4976797;28;20447;-75
2023/07/09 09:06:22;;;;;;;0.80;0.40;;;28.60;1.00;;;;;;4977736;28;20449;-75
2023/07/09 09:09:16;;;;;;;0.70;0.20;;;28.70;1.00;;;;;;4978641;28;20481;-76
2023/07/09 09:11:46;;;;;;;0.70;0.10;;;28.80;1.00;;;;;;4991186;28;20477;-77
2023/07/09 09:14:24;;;;;;;0.70;0.20;;;28.90;1.00;;;;;;4996452;28;20445;-76
2023/07/09 09:16:53;;;;;;;0.70;0.10;;;29.00;1.00;;;;;;4996494;28;20574;-76
2023/07/09 09:19:26;;;;;;;0.70;0.20;;;29.10;1.00;;;;;;4997096;28;20445;-75
2023/07/09 09:21:59;;;;;;;0.70;0.10;;;29.20;1.00;;;;;;4997466;28;20499;-75
2023/07/09 09:24:35;;;;;;;1.57;1.47;;;29.30;1.00;;;;;;4996523;28;20489;-75
2023/07/09 09:27:04;;;;;;;0.70;0.20;;;29.30;1.00;;;;;;4996829;28;20492;-75
2023/07/09 09:29:32;;;;;;;0.70;0.10;;;29.40;1.00;;;;;;4996734;28;20498;-75
2023/07/09 09:32:12;;;;;;;0.70;0.10;;;29.40;1.00;;;;;;4996676;28;20904;-75
2023/07/09 09:34:40;;;;;;;0.70;0.20;;;29.50;1.00;;;;;;4996998;28;20447;-74
2023/07/09 09:37:12;;;;;;;0.70;0.20;;;29.60;1.00;;;;;;4996712;28;20522;-75
2023/07/09 09:39:41;;;;;;;0.70;0.20;;;29.70;1.00;;;;;;4997031;28;20930;-74
2023/07/09 09:42:12;;;;;;;0.70;0.10;;;29.80;1.00;;;;;;4996552;28;20479;-75
2023/07/09 09:44:45;;;;;;;0.70;0.20;;;29.90;1.00;;;;;;4996099;28;20487;-75
2023/07/09 09:47:13;;;;;;;0.70;0.20;;;30.00;1.00;;;;;;4995226;28;20454;-76
2023/07/09 09:49:41;;;;;;;0.70;0.20;;;30.10;1.00;;;;;;4995794;28;20455;-76
2023/07/09 09:52:14;;;;;;;0.70;0.10;;;30.20;1.00;;;;;;4996212;28;20499;-75
2023/07/09 09:54:52;;;;;;;1.00;0.30;;;30.20;1.00;;;;;;4996052;28;20447;-76
2023/07/09 09:57:22;;;;;;;0.70;0.10;;;30.30;1.00;;;;;;4995926;28;20547;-75
2023/07/09 09:59:50;;;;;;;0.70;0.10;;;30.30;1.00;;;;;;4995989;28;20491;-75
2023/07/09 10:02:20;;;;;;;0.70;0.13;;;30.50;1.00;;;;;;4981146;28;20476;-75
2023/07/09 10:04:49;;;;;;;0.70;0.10;;;30.50;1.00;;;;;;4975754;28;20448;-75
2023/07/09 10:07:23;;;;;;;1.20;0.97;;;30.60;1.00;;;;;;4976430;28;20484;-76
2023/07/09 10:09:55;;;;;;;0.70;0.20;;;30.50;1.00;;;;;;4976506;28;20453;-76
2023/07/09 10:12:39;;;;;;;0.70;0.10;;;30.60;1.00;;;;;;4956651;28;20481;-76
2023/07/09 10:15:20;;;;;;;0.70;0.10;;;30.70;1.00;;;;;;4957438;29;20450;-76
2023/07/09 10:17:56;;;;;;;0.70;0.20;;;30.70;1.00;;;;;;4957585;29;20447;-77
2023/07/09 10:20:30;;;;;;;0.70;0.20;;;30.90;1.00;;;;;;4957323;29;20458;-76
2023/07/09 10:23:04;;;;;;;0.70;0.13;;;31.00;1.00;;;;;;4956488;29;20533;-76
2023/07/09 10:25:40;;;;;;;1.20;1.10;;;31.10;1.00;;;;;;4956826;29;20449;-76
2023/07/09 10:28:32;;;;;;;0.70;0.20;;;31.10;1.00;;;;;;4956785;29;20561;-77
2023/07/09 10:31:08;;;;;;;0.70;0.20;;;31.20;1.00;;;;;;4956713;29;20989;-75
2023/07/09 10:33:49;;;;;;;1.40;0.50;;;31.20;1.00;;;;;;4956412;29;20450;-76
2023/07/09 10:36:29;;;;;;;0.70;0.20;;;31.20;1.00;;;;;;4956666;29;20444;-76
2023/07/09 10:39:03;;;;;;;0.70;0.23;;;31.30;1.00;;;;;;4956367;29;20446;-76
2023/07/09 10:41:35;;;;;;;0.70;0.20;;;31.40;1.00;;;;;;4956520;29;20525;-77
2023/07/09 10:44:11;;;;;;;0.70;0.20;;;31.40;1.00;;;;;;4956070;29;20446;-76
2023/07/09 10:46:43;;;;;;;0.70;0.30;;;31.50;1.00;;;;;;4956554;29;20472;-76
2023/07/09 10:49:14;;;;;;;0.70;0.20;;;28.80;1.00;;;;;;4958253;29;20573;-76
2023/07/09 10:51:47;;;;;;;0.70;0.20;;;31.70;1.00;;;;;;4956760;29;20910;-77
2023/07/09 10:54:24;;;;;;;0.70;0.20;;;31.80;1.00;;;;;;4956590;29;20493;-76
2023/07/09 10:56:59;;;;;;;0.70;0.20;;;31.80;1.00;;;;;;4959633;28;20534;-76
2023/07/09 10:59:31;;;;;;;0.70;0.20;;;31.90;1.00;;;;;;4963599;29;20477;-75
2023/07/09 11:02:08;;;;;;;0.70;0.20;;;32.00;1.00;;;;;;4975492;28;20508;-76
2023/07/09 11:04:40;;;;;;;2.40;0.67;;;32.10;1.00;;;;;;4980292;28;20457;-76
2023/07/09 11:07:13;;;;;;;0.70;0.20;;;32.10;1.00;;;;;;4977866;28;20445;-76
2023/07/09 11:09:45;;;;;;;0.70;0.20;;;32.10;1.00;;;;;;4977076;28;20568;-77
2023/07/09 11:12:18;;;;;;;0.70;0.20;;;32.00;1.00;;;;;;4993489;28;20468;-77
2023/07/09 11:14:50;;;;;;;0.90;0.40;;;32.20;1.00;;;;;;4994981;28;20441;-76
2023/07/09 11:17:20;;;;;;;0.80;0.40;;;32.20;1.00;;;;;;4994348;28;20551;-77
2023/07/09 11:19:54;;;;;;;0.70;0.23;;;32.30;1.00;;;;;;4992193;28;20449;-76
2023/07/09 11:22:24;;;;;;;0.80;0.30;;;32.20;1.00;;;;;;4992039;28;20473;-76
2023/07/09 11:24:55;;;;;;;0.70;0.10;;;32.20;1.00;;;;;;4992501;28;20936;-76
2023/07/09 11:27:26;;;;;;;0.70;0.10;;;32.30;1.00;;;;;;4993195;28;20983;-76
2023/07/09 11:30:00;;;;;;;0.70;0.20;;;32.30;1.00;;;;;;4993182;28;20483;-75
2023/07/09 11:32:29;;;;;;;1.80;1.13;;;32.30;1.00;;;;;;4993477;28;20522;-75
2023/07/09 11:35:08;;;;;;;0.70;0.20;;;32.30;1.00;;;;;;4994441;28;20476;-75
2023/07/09 11:37:46;;;;;;;0.70;0.20;;;32.40;1.00;;;;;;4994555;28;20539;-75
2023/07/09 11:40:18;;;;;;;0.70;0.20;;;32.50;1.00;;;;;;4994211;28;20473;-77
2023/07/09 11:42:53;;;;;;;0.70;0.20;;;32.50;1.00;;;;;;4994416;28;20484;-76
2023/07/09 11:45:26;;;;;;;0.70;0.20;;;32.70;1.00;;;;;;4994335;28;20440;-75
2023/07/09 11:48:03;;;;;;;0.70;0.20;;;32.80;1.00;;;;;;4994028;28;20445;-77
2023/07/09 11:50:35;;;;;;;0.70;0.20;;;32.80;1.00;;;;;;4994693;28;20465;-75
2023/07/09 11:53:23;;;;;;;0.70;0.17;;;32.90;1.00;;;;;;4994491;28;20452;-76
2023/07/09 11:55:51;;;;;;;0.70;0.20;;;33.00;1.00;;;;;;4994858;28;20448;-76
2023/07/09 11:58:20;;;;;;;0.70;0.20;;;33.20;1.00;;;;;;4997874;28;20971;-76
2023/07/09 12:00:50;;;;;;;1.20;0.20;;;33.30;1.00;;;;;;4993333;28;20863;-76
2023/07/09 12:03:24;;;;;;;0.70;0.10;;;33.40;1.00;;;;;;4974951;28;20465;-77
2023/07/09 12:05:54;;;;;;;0.80;0.47;;;33.40;1.00;;;;;;4974338;28;20484;-76
2023/07/09 12:08:28;;;;;;;2.00;1.90;;;33.40;1.00;;;;;;4973747;28;20828;-76
2023/07/09 12:10:55;;;;;;;0.70;0.20;;;33.50;1.00;;;;;;4966632;28;20529;-75
2023/07/09 12:13:25;;;;;;;0.70;0.20;;;33.60;1.00;;;;;;4954695;29;20542;-75
2023/07/09 12:15:53;;;;;;;0.70;0.20;;;33.70;1.00;;;;;;4955479;29;20451;-75
2023/07/09 12:18:20;;;;;;;0.77;0.43;;;33.70;1.00;;;;;;4955644;29;20442;-74
2023/07/09 12:20:51;;;;;;;1.33;0.33;;;33.60;1.00;;;;;;4954802;29;20518;-76
2023/07/09 12:23:24;;;;;;;0.70;0.20;;;33.70;1.00;;;;;;4954411;29;20443;-75
2023/07/09 12:25:53;;;;;;;0.70;0.20;;;33.60;1.00;;;;;;4954309;29;20513;-77
2023/07/09 12:28:23;;;;;;;0.70;0.20;;;33.80;1.00;;;;;;4954176;29;20443;-77
2023/07/09 12:30:53;;;;;;;0.70;0.20;;;33.80;1.00;;;;;;4954399;29;20834;-77
2023/07/09 12:33:22;;;;;;;0.70;0.20;;;33.90;1.00;;;;;;4953997;29;20533;-77
2023/07/09 12:35:56;;;;;;;0.70;0.20;;;34.00;1.00;;;;;;4954220;29;21024;-77
2023/07/09 12:38:27;;;;;;;0.70;0.10;;;34.10;1.00;;;;;;4954154;29;20442;-76
2023/07/09 12:40:55;;;;;;;0.70;0.20;;;34.20;1.00;;;;;;4954016;29;20553;-77
2023/07/09 12:43:30;;;;;;;0.70;0.20;;;34.20;1.00;;;;;;4953769;29;20505;-75
2023/07/09 12:46:00;;;;;;;0.70;0.10;;;34.30;1.00;;;;;;4954202;29;20521;-76
2023/07/09 12:48:30;;;;;;;0.70;0.20;;;34.30;1.00;;;;;;4954681;29;20455;-76
2023/07/09 12:51:00;;;;;;;1.63;0.63;;;34.30;1.00;;;;;;4954073;29;20538;-77
2023/07/09 12:53:30;;;;;;;0.70;0.20;;;34.30;1.00;;;;;;4953849;29;20451;-77
2023/07/09 12:56:00;;;;;;;0.70;0.20;;;34.30;1.00;;;;;;4954097;29;20517;-77
2023/07/09 12:58:30;;;;;;;0.70;0.20;;;34.30;1.00;;;;;;4954534;29;20453;-76
2023/07/09 13:01:06;;;;;;;0.70;0.20;;;34.40;1.00;;;;;;4957757;28;20533;-77
2023/07/09 13:03:34;;;;;;;0.70;0.20;;;34.50;1.00;;;;;;4972916;28;20445;-77
2023/07/09 13:06:05;;;;;;;0.70;0.20;;;34.50;1.00;;;;;;4972853;28;20473;-76
2023/07/09 13:08:42;;;;;;;0.70;0.20;;;34.50;1.00;;;;;;4973111;28;20512;-76
2023/07/09 13:11:15;;;;;;;1.47;1.37;;;34.70;1.00;;;;;;4982619;28;20484;-76
2023/07/09 13:13:53;;;;;;;0.70;0.20;;;34.70;1.00;;;;;;4992064;28;21018;-76
2023/07/09 13:16:23;;;;;;;0.70;0.20;;;34.80;1.00;;;;;;4992513;28;20445;-77
2023/07/09 13:18:50;;;;;;;0.70;0.20;;;34.90;1.00;;;;;;4992746;28;20440;-76
2023/07/09 13:21:21;;;;;;;0.70;0.20;;;34.90;1.00;;;;;;4993646;28;20547;-76
2023/07/09 13:23:49;;;;;;;0.70;0.20;;;34.90;1.00;;;;;;4995845;28;20882;-77
2023/07/09 13:26:17;;;;;;;0.70;0.30;;;34.70;1.00;;;;;;4996041;28;20448;-76
2023/07/09 13:28:46;;;;;;;0.70;0.20;;;34.70;1.00;;;;;;4996056;28;20451;-76
2023/07/09 13:31:16;;;;;;;0.70;0.20;;;34.70;1.00;;;;;;4995630;28;20494;-75
2023/07/09 13:33:51;;;;;;;0.90;0.60;;;34.70;1.00;;;;;;4995937;28;20965;-76
2023/07/09 13:36:19;;;;;;;0.80;0.40;;;34.70;1.00;;;;;;4996050;28;20565;-77
2023/07/09 13:38:46;;;;;;;0.80;0.50;;;34.70;1.00;;;;;;4995625;28;20453;-77
2023/07/09 13:41:17;;;;;;;0.70;0.20;;;34.70;1.00;;;;;;4995608;28;20523;-76
2023/07/09 13:43:48;;;;;;;3.30;0.80;;;34.90;1.00;;;;;;4995751;28;20583;-76
2023/07/09 13:46:16;;;;;;;0.90;0.47;;;34.90;1.00;;;;;;4995994;28;21092;-76
2023/07/09 13:48:46;;;;;;;7.60;2.43;;;34.90;1.00;;;;;;4995445;28;21091;-76
2023/07/09 13:51:17;;;;;;;0.70;0.20;;;35.00;1.00;;;;;;4995108;28;20546;-76
2023/07/09 13:53:45;;;;;;;1.10;0.50;;;34.80;1.00;;;;;;4995077;28;20816;-75
2023/07/09 13:56:13;;;;;;;0.70;0.20;;;34.90;1.00;;;;;;4995516;28;20786;-75
2023/07/09 13:58:41;;;;;;;0.70;0.30;;;35.10;1.00;;;;;;4995685;28;20476;-75
2023/07/09 14:01:13;;;;;;;0.70;0.10;;;35.20;1.00;;;;;;4990463;28;20473;-76
2023/07/09 14:03:41;;;;;;;0.70;0.20;;;35.20;1.00;;;;;;4975973;28;20446;-75
2023/07/09 14:06:13;;;;;;;0.70;0.20;;;35.40;1.00;;;;;;4975642;28;20450;-76
2023/07/09 14:08:41;;;;;;;1.10;0.67;;;35.40;1.00;;;;;;4975397;28;20972;-76
2023/07/09 14:11:12;;;;;;;0.97;0.83;;;35.60;1.00;;;;;;4966181;28;20486;-76
2023/07/09 14:13:41;;;;;;;0.90;0.30;;;35.60;1.00;;;;;;4956047;29;20462;-76
2023/07/09 14:16:11;;;;;;;0.80;0.30;;;35.70;1.00;;;;;;4956325;29;20443;-75
2023/07/09 14:18:39;;;;;;;0.70;0.20;;;35.70;1.00;;;;;;4956182;29;20481;-75
2023/07/09 14:21:14;;;;;;;0.70;0.10;;;35.80;1.00;;;;;;4955951;29;20494;-75
2023/07/09 14:23:42;;;;;;;0.70;0.20;;;35.80;1.00;;;;;;4955938;29;20804;-76
2023/07/09 14:26:10;;;;;;;0.70;0.20;;;;;;;;;;4956242;29;20451;-76
2023/07/09 14:28:39;;;;;;;0.70;0.20;;;35.90;1.00;;;;;;4956257;29;20454;-76
2023/07/09 14:31:20;;;;;;;0.70;0.10;;;35.90;1.00;;;;;;4955634;29;21023;-76
2023/07/09 14:33:48;;;;;;;0.80;0.30;;;35.90;1.00;;;;;;4955799;28;20529;-76
2023/07/09 14:36:17;;;;;;;0.70;0.20;;;35.80;1.00;;;;;;4955806;29;20537;-76
2023/07/09 14:38:46;;;;;;;0.80;0.60;;;35.80;1.00;;;;;;4956069;29;20457;-76
2023/07/09 14:41:21;;;;;;;0.70;0.20;;;35.80;1.00;;;;;;4956015;29;20489;-76
2023/07/09 14:43:50;;;;;;;0.70;0.20;;;35.80;1.00;;;;;;4955638;29;20454;-75
2023/07/09 14:46:17;;;;;;;0.70;0.20;;;35.70;1.00;;;;;;4956068;29;20482;-74
2023/07/09 14:48:45;;;;;;;0.90;0.60;;;35.60;1.00;;;;;;4956142;29;20454;-75
2023/07/09 14:51:16;;;;;;;0.70;0.20;;;35.60;1.00;;;;;;4958143;29;20514;-75
2023/07/09 14:53:45;;;;;;;0.70;0.20;;;35.50;1.00;;;;;;4956492;29;20450;-75
2023/07/09 14:56:14;;;;;;;0.70;0.30;;;35.60;1.00;;;;;;4956182;29;20478;-75
2023/07/09 14:58:42;;;;;;;0.70;0.20;;;35.60;1.00;;;;;;4955920;29;20455;-76
2023/07/09 15:01:12;;;;;;;0.70;0.20;;;35.60;1.00;;;;;;4960706;28;20474;-76
2023/07/09 15:03:40;;;;;;;0.70;0.10;;;35.60;1.00;;;;;;4974382;28;21023;-76
2023/07/09 15:06:09;;;;;;;0.70;0.27;;;35.60;1.00;;;;;;4974710;28;20959;-75
2023/07/09 15:08:37;;;;;;;0.70;0.20;;;35.50;1.00;;;;;;4978875;28;20450;-75
2023/07/09 15:11:06;;;;;;;0.70;0.20;;;35.50;1.00;;;;;;4984584;28;20485;-75
2023/07/09 15:13:37;;;;;;;0.70;0.20;;;35.40;1.00;;;;;;4993977;28;20456;-75
2023/07/09 15:16:06;;;;;;;0.70;0.20;;;35.40;1.00;;;;;;4994089;28;20873;-75
2023/07/09 15:18:36;;;;;;;0.70;0.20;;;35.40;1.00;;;;;;4993937;28;20452;-75
2023/07/09 15:21:05;;;;;;;0.70;0.20;;;35.30;1.00;;;;;;4994015;28;20456;-75
2023/07/09 15:23:40;;;;;;;0.70;0.20;;;35.30;1.00;;;;;;4993594;28;20527;-75
2023/07/09 15:26:14;;;;;;;0.70;0.20;;;35.20;1.00;;;;;;4994309;28;21053;-75
2023/07/09 15:28:42;;;;;;;0.70;0.20;;;35.20;1.00;;;;;;4994170;28;20451;-74
2023/07/09 15:31:11;;;;;;;0.70;0.20;;;35.10;1.00;;;;;;4995140;28;20520;-77
2023/07/09 15:33:39;;;;;;;0.70;0.10;;;35.10;1.00;;;;;;4993760;28;20896;-76
2023/07/09 15:36:11;;;;;;;0.70;0.27;;;35.10;1.00;;;;;;4993588;28;20480;-75
2023/07/09 15:38:40;;;;;;;0.70;0.20;;;35.10;1.00;;;;;;4994099;28;20532;-73
2023/07/09 15:41:13;;;;;;;2.20;1.80;;;35.00;1.00;;;;;;4994599;28;20465;-78
2023/07/09 15:43:43;;;;;;;0.73;0.33;;;35.00;1.00;;;;;;4995154;28;20445;-76
2023/07/09 15:46:18;;;;;;;8.73;2.20;;;34.90;1.00;;;;;;4994611;28;20441;-77
2023/07/09 15:48:46;;;;;;;0.90;0.53;;;34.90;1.00;;;;;;4993960;28;20859;-77
2023/07/09 15:51:15;;;;;;;0.80;0.47;;;34.80;1.00;;;;;;4993297;28;20987;-75
2023/07/09 15:53:43;;;;;;;0.70;0.33;;;34.70;1.00;;;;;;4993773;28;20507;-74
2023/07/09 15:56:18;;;;;;;1.40;1.03;;;34.80;1.00;;;;;;4993749;28;20449;-75
2023/07/09 15:58:47;;;;;;;1.23;0.40;;;34.80;1.00;;;;;;4994040;28;20428;-75
2023/07/09 16:01:16;;;;;;;1.47;1.07;;;34.70;1.00;;;;;;4987185;28;20581;-75
2023/07/09 16:03:47;;;;;;;15.60;1.77;;;34.70;1.00;;;;;;4973870;28;20453;-78
2023/07/09 16:06:15;;;;;;;0.70;0.23;;;34.60;1.00;;;;;;4974007;28;20486;-76
2023/07/09 16:08:43;;;;;;;0.73;0.23;;;34.60;1.00;;;;;;4974817;28;20488;-74
2023/07/09 16:11:17;;;;;;;0.70;0.20;;;34.10;1.00;;;;;;4964506;28;20482;-76
2023/07/09 16:13:45;;;;;;;3.40;3.20;;;34.50;1.00;;;;;;4954934;29;20478;-77
2023/07/09 16:16:14;;;;;;;0.80;0.40;;;34.50;1.00;;;;;;4954767;29;20450;-75
2023/07/09 16:18:44;;;;;;;0.97;0.47;;;34.40;1.00;;;;;;4954777;29;20451;-76
2023/07/09 16:21:25;;;;;;;0.70;0.23;;;34.40;1.00;;;;;;4954281;28;20465;-75
2023/07/09 16:23:54;;;;;;;1.30;0.87;;;34.40;1.00;;;;;;4954105;29;20877;-76
2023/07/09 16:26:23;;;;;;;1.47;1.17;;;34.40;1.00;;;;;;4958258;28;20454;-75
2023/07/09 16:28:55;;;;;;;1.23;0.70;;;34.50;1.00;;;;;;4973752;28;20809;-75
2023/07/09 16:31:23;;;;;;;0.77;0.37;;;34.50;1.00;;;;;;4972947;28;20528;-75
2023/07/09 16:33:51;;;;;;;0.70;0.13;;;34.50;1.00;;;;;;4956380;28;20455;-76
2023/07/09 16:36:19;;;;;;;0.70;0.20;;;34.50;1.00;;;;;;4953732;29;21012;-75
2023/07/09 16:38:49;;;;;;;1.13;1.03;;;34.50;1.00;;;;;;4953698;29;20934;-76
2023/07/09 16:41:17;;;;;;;1.10;0.67;;;34.50;1.00;;;;;;4953919;29;20476;-77
2023/07/09 16:43:46;;;;;;;0.70;0.20;;;34.60;1.00;;;;;;4953621;29;20528;-76
2023/07/09 16:46:17;;;;;;;0.70;0.20;;;34.60;1.00;;;;;;4935151;29;20518;-76
2023/07/09 16:48:45;;;;;;;0.70;0.20;;;34.60;1.00;;;;;;4936113;29;20440;-75
2023/07/09 16:51:13;;;;;;;0.70;0.20;;;34.70;1.00;;;;;;4960961;28;21072;-75
2023/07/09 16:53:41;;;;;;;0.70;0.20;;;34.70;1.00;;;;;;4977458;28;20458;-75
2023/07/09 16:56:11;;;;;;;2.07;1.30;;;34.60;1.00;;;;;;4963304;28;20963;-75
2023/07/09 16:58:39;;;;;;;2.40;1.03;;;34.60;1.00;;;;;;4958344;29;21044;-75
2023/07/09 17:01:09;;;;;;;0.70;0.20;;;34.60;1.00;;;;;;4962564;28;21004;-75
2023/07/09 17:03:37;;;;;;;1.77;0.73;;;34.50;1.00;;;;;;4977932;28;20871;-76
2023/07/09 17:06:05;;;;;;;0.77;0.33;;;34.50;1.00;;;;;;4958041;28;20529;-76
2023/07/09 17:08:33;;;;;;;0.70;0.27;;;34.40;1.00;;;;;;4958261;29;20450;-77
2023/07/09 17:11:03;;;;;;;0.70;0.20;;;34.30;1.00;;;;;;4973944;28;20898;-75
2023/07/09 17:13:32;;;;;;;0.80;0.50;;;34.20;1.00;;;;;;4994448;28;20444;-75
2023/07/09 17:16:00;;;;;;;0.70;0.20;;;34.10;1.00;;;;;;4994337;28;20456;-75
2023/07/09 17:18:32;;;;;;;0.70;0.20;;;34.00;1.00;;;;;;4995237;28;20977;-74
2023/07/09 17:21:02;;;;;;;0.70;0.10;;;33.90;1.00;;;;;;4994832;28;20465;-75
2023/07/09 17:23:32;;;;;;;11.33;2.20;;;33.70;1.00;;;;;;4994086;28;20445;-76
2023/07/09 17:26:00;;;;;;;0.70;0.20;;;33.50;1.00;;;;;;4994586;28;20514;-76
2023/07/09 17:28:31;;;;;;;0.70;0.20;;;33.40;1.00;;;;;;4996538;28;20452;-76
2023/07/09 17:31:00;;;;;;;5.37;5.00;;;33.20;1.00;;;;;;4996712;28;20557;-74